Time;durP1;ratioP1;P1;durP2;ratioP2;P2;SDS_P1;SDS_P2;PMS_P1;PMS_P2;Temp;Humidity;BMP_temperature;BMP_pressure;BME280_temperature;BME280_humidity;BME280_pressure;Samples;Min_cycle;Max_cycle;Signal;HPM_P1;HPM_P2
2022/01/16 00:05:01;;;;;;;30.57;22.53;;;0.40;99.90;;;1.11;95.15;98637.47;5154772;28;20642;-63
2022/01/16 00:07:34;;;;;;;33.97;23.00;;;0.40;99.90;;;1.04;94.63;98662.72;5184374;28;20304;-63
2022/01/16 00:10:09;;;;;;;33.90;24.47;;;0.30;99.90;;;0.94;95.35;98659.94;5184820;28;20594;-63
2022/01/16 00:12:47;;;;;;;35.60;24.33;;;0.20;99.90;;;0.92;95.35;98646.31;5184816;28;20242;-63
2022/01/16 00:15:22;;;;;;;36.83;23.57;;;0.20;99.90;;;0.90;94.86;98658.75;5176221;28;20697;-63
2022/01/16 00:18:00;;;;;;;33.77;24.00;;;0.20;99.90;;;0.92;94.74;98651.34;5187921;28;20721;-63
2022/01/16 00:20:36;;;;;;;33.33;24.13;;;0.10;99.90;;;0.86;94.56;98661.66;5188223;28;20219;-64
2022/01/16 00:23:10;;;;;;;31.83;23.30;;;0.10;99.90;;;0.76;94.65;98658.88;5189165;28;20779;-63
2022/01/16 00:25:45;;;;;;;33.57;22.57;;;0.00;99.90;;;0.69;94.80;98642.25;5188347;28;20595;-63
2022/01/16 00:28:18;;;;;;;32.90;23.20;;;-0.10;99.90;;;0.65;95.43;98622.50;5187615;28;20231;-63
2022/01/16 00:30:53;;;;;;;33.53;22.77;;;-0.10;99.90;;;0.62;95.76;98619.66;5187579;28;20223;-63
2022/01/16 00:33:26;;;;;;;32.43;21.17;;;-0.10;99.90;;;0.70;95.03;98631.44;5184873;28;20224;-63
2022/01/16 00:36:00;;;;;;;36.10;24.50;;;-0.20;99.90;;;0.57;95.98;98600.66;5187789;28;20292;-63
2022/01/16 00:38:34;;;;;;;32.17;22.87;;;-0.20;99.90;;;0.53;95.69;98604.47;5188450;28;20220;-63
2022/01/16 00:41:07;;;;;;;32.20;21.93;;;-0.30;99.90;;;0.47;96.35;98613.00;5187578;28;20226;-63
2022/01/16 00:43:41;;;;;;;32.60;22.53;;;-0.30;99.90;;;0.49;96.36;98645.13;5187028;28;20226;-63
2022/01/16 00:46:15;;;;;;;28.83;21.63;;;-0.20;99.90;;;0.53;95.92;98633.78;5186713;28;20221;-64
2022/01/16 00:48:48;;;;;;;30.33;21.20;;;-0.30;99.90;;;0.47;95.81;98653.22;5180492;28;20227;-63
2022/01/16 00:51:24;;;;;;;29.13;20.73;;;-0.30;99.90;;;0.40;95.70;98631.53;5179838;28;20672;-63
2022/01/16 00:53:57;;;;;;;29.47;19.60;;;-0.40;99.90;;;0.43;96.21;98636.94;5183301;28;20229;-63
2022/01/16 00:56:30;;;;;;;29.07;19.47;;;-0.30;99.90;;;0.45;95.75;98650.53;5187407;28;20701;-63
2022/01/16 00:59:03;;;;;;;29.20;20.60;;;-0.30;99.90;;;0.50;95.88;98663.63;5186396;28;20224;-63
2022/01/16 01:01:36;;;;;;;31.70;20.67;;;-0.30;99.90;;;0.50;95.59;98644.41;5186378;28;20234;-63
2022/01/16 01:04:09;;;;;;;28.90;21.13;;;-0.30;99.90;;;0.50;95.26;98663.63;5187687;28;20233;-63
2022/01/16 01:06:47;;;;;;;31.00;21.17;;;-0.30;99.90;;;0.48;95.35;98662.56;5187807;28;20230;-63
2022/01/16 01:09:20;;;;;;;30.33;21.87;;;-0.30;99.90;;;0.53;95.88;98658.94;5187395;28;20234;-63
2022/01/16 01:11:53;;;;;;;33.97;22.17;;;-0.30;99.90;;;0.51;96.00;98651.19;5186923;28;20233;-64
2022/01/16 01:14:38;;;;;;;29.90;21.63;;;-0.20;99.90;;;0.47;96.45;98665.81;5187245;28;20222;-63
2022/01/16 01:17:20;;;;;;;31.43;21.83;;;-0.20;99.90;;;0.45;97.51;98679.09;5187400;28;20691;-64
2022/01/16 01:19:53;;;;;;;30.50;21.13;;;-0.20;99.90;;;0.49;97.03;98646.72;5184503;28;20314;-63
2022/01/16 01:22:27;;;;;;;29.63;21.60;;;-0.20;99.90;;;0.51;96.00;98589.97;5187169;28;20222;-63
2022/01/16 01:25:00;;;;;;;28.83;20.40;;;-0.30;99.90;;;0.48;95.80;98572.03;5186567;28;20217;-63
2022/01/16 01:27:33;;;;;;;32.47;21.00;;;-0.30;99.90;;;0.43;96.42;98577.47;5186415;28;20222;-63
2022/01/16 01:30:09;;;;;;;31.87;20.87;;;-0.30;99.90;;;0.42;96.62;98585.72;5186582;28;20322;-64
2022/01/16 01:32:46;;;;;;;32.27;21.07;;;-0.30;99.90;;;0.49;96.82;98571.28;5186997;28;20231;-63
2022/01/16 01:35:20;;;;;;;33.87;20.17;;;-0.30;99.90;;;0.42;96.36;98584.84;5186612;28;20229;-64
2022/01/16 01:37:54;;;;;;;37.13;21.10;;;-0.30;99.90;;;0.37;96.80;98609.50;5186513;28;20239;-63
2022/01/16 01:40:28;;;;;;;34.60;21.17;;;-0.40;99.90;;;0.34;97.43;98635.91;5187264;28;20214;-63
2022/01/16 01:51:02;;;;;;;29.13;18.80;;;-0.40;99.90;;;0.32;97.47;98635.75;5187035;28;20217;-63
2022/01/16 01:51:44;;;;;;;34.97;18.37;;;-0.50;99.90;;;0.29;96.21;98642.09;5185900;28;20240;-63
2022/01/16 01:54:19;;;;;;;25.73;17.97;;;-0.50;99.90;;;0.32;96.37;98652.47;5186259;28;20223;-63
2022/01/16 01:56:52;;;;;;;28.20;18.40;;;-0.50;99.90;;;0.32;96.00;98645.81;5186665;28;20522;-64
2022/01/16 01:59:26;;;;;;;27.47;18.43;;;-0.50;99.90;;;0.36;96.46;98655.47;5186858;28;20679;-63
2022/01/16 02:01:59;;;;;;;26.50;16.97;;;-0.40;99.90;;;0.39;96.17;98654.91;5179981;28;20622;-63
2022/01/16 02:04:32;;;;;;;29.87;19.80;;;-0.40;99.90;;;0.41;95.97;98668.53;5186222;28;20221;-63
2022/01/16 02:07:05;;;;;;;29.20;19.93;;;-0.40;99.90;;;0.44;95.91;98672.28;5186182;28;20214;-63
2022/01/16 02:09:39;;;;;;;27.63;18.43;;;-0.40;99.90;;;0.43;95.93;98673.03;5185767;28;20218;-63
2022/01/16 02:12:13;;;;;;;32.03;20.20;;;-0.40;99.90;;;0.50;96.03;98671.16;5186773;28;20225;-63
2022/01/16 02:14:56;;;;;;;31.60;21.07;;;-0.40;99.90;;;0.59;95.70;98684.72;5186224;28;20233;-63
2022/01/16 02:29:16;;;;;;;27.87;18.53;;;-0.40;99.90;;;0.72;94.63;98676.91;5186747;28;20250;-63
2022/01/16 02:32:00;;;;;;;31.70;17.80;;;-0.40;99.90;;;0.68;94.51;98673.16;5178621;28;20284;-63
2022/01/16 02:34:36;;;;;;;28.60;18.40;;;-0.40;99.90;;;0.62;94.89;98669.97;5184137;28;20383;-63
2022/01/16 02:37:12;;;;;;;40.93;17.40;;;-0.50;99.90;;;0.50;94.45;98668.66;5184559;28;20218;-63
2022/01/16 02:39:50;;;;;;;34.20;17.33;;;-0.50;99.90;;;0.36;94.63;98679.72;5185153;28;20229;-63
2022/01/16 02:42:27;;;;;;;22.30;16.33;;;-0.60;99.90;;;0.34;93.89;98672.00;5184998;28;20226;-63
2022/01/16 02:45:03;;;;;;;27.03;17.53;;;-0.70;99.90;;;0.16;95.65;98662.47;5182711;28;20218;-63
2022/01/16 02:47:36;;;;;;;27.93;18.60;;;-0.70;99.90;;;0.23;95.77;98659.91;5185592;28;20226;-63
2022/01/16 02:50:28;;;;;;;29.27;19.43;;;-0.70;99.90;;;0.44;94.82;98664.75;5183524;28;20226;-63
2022/01/16 02:53:06;;;;;;;27.80;18.77;;;-0.60;99.90;;;0.44;95.25;98661.34;5184844;28;20222;-63
2022/01/16 02:55:43;;;;;;;28.00;18.00;;;-0.60;99.90;;;0.53;95.07;98647.25;5183990;28;20690;-64
2022/01/16 02:58:16;;;;;;;27.43;17.50;;;-0.60;99.90;;;0.60;94.57;98653.81;5186122;28;20229;-63
2022/01/16 03:00:49;;;;;;;27.47;17.57;;;-0.60;99.90;;;0.59;94.23;98647.00;5184650;28;20216;-64
2022/01/16 03:03:26;;;;;;;26.13;18.00;;;-0.60;99.90;;;0.50;94.60;98648.53;5185425;28;20222;-63
2022/01/16 03:05:59;;;;;;;32.70;18.17;;;-0.60;99.90;;;0.43;95.04;98636.94;5185007;28;20714;-63
2022/01/16 03:08:32;;;;;;;28.00;17.87;;;-0.60;99.90;;;0.50;95.01;98641.88;5185277;28;20214;-63
2022/01/16 03:11:26;;;;;;;28.57;18.80;;;-0.60;99.90;;;0.44;94.69;98639.59;5178574;28;20230;-63
2022/01/16 03:13:59;;;;;;;30.50;18.83;;;-0.60;99.90;;;0.41;95.39;98649.31;5177327;28;20228;-63
2022/01/16 03:16:32;;;;;;;29.87;18.43;;;-0.60;99.90;;;0.44;95.44;98644.63;5177986;28;20233;-63
2022/01/16 03:21:58;;;;;;;39.87;20.40;;;-0.60;99.90;;;0.44;95.28;98642.09;5173215;28;20219;-63
2022/01/16 03:24:36;;;;;;;36.13;19.83;;;-0.60;99.90;;;0.37;94.94;98646.28;5183682;28;20217;-63
2022/01/16 03:27:14;;;;;;;27.93;19.23;;;-0.60;99.90;;;0.51;95.21;98642.75;5178929;28;20620;-63
2022/01/16 03:29:51;;;;;;;29.13;19.77;;;-0.70;99.90;;;0.63;94.54;98639.97;5185239;28;20230;-63
2022/01/16 03:32:25;;;;;;;28.40;18.90;;;-0.60;99.90;;;0.50;93.84;98633.44;5183592;28;20216;-63
2022/01/16 03:34:58;;;;;;;31.23;18.63;;;-0.60;99.90;;;0.39;94.54;98637.31;5184720;28;20240;-63
2022/01/16 03:37:31;;;;;;;30.83;19.47;;;-0.60;99.90;;;0.35;95.41;98636.09;5185494;28;20239;-64
2022/01/16 03:40:09;;;;;;;29.53;19.03;;;-0.60;99.90;;;0.40;95.08;98637.50;5185692;28;20319;-63
2022/01/16 03:42:45;;;;;;;28.87;20.23;;;-0.70;99.90;;;0.26;94.01;98642.63;5184861;28;20638;-63
2022/01/16 03:45:18;;;;;;;32.93;20.13;;;-0.80;99.90;;;0.41;93.71;98639.25;5184719;28;20751;-63
2022/01/16 03:47:51;;;;;;;29.90;19.73;;;-0.80;99.90;;;0.35;94.42;98636.09;5185404;28;20708;-64
2022/01/16 03:50:24;;;;;;;34.87;20.23;;;-0.80;99.90;;;0.20;94.99;98627.78;5184805;28;20690;-63
2022/01/16 03:52:57;;;;;;;31.87;18.90;;;-0.80;99.90;;;0.12;95.03;98628.56;5189106;28;20229;-63
2022/01/16 03:55:32;;;;;;;35.00;20.63;;;-0.80;99.90;;;0.07;95.75;98644.75;5187760;28;20217;-63
2022/01/16 03:58:06;;;;;;;35.67;20.53;;;-0.90;99.90;;;-0.05;96.10;98649.31;5188992;28;20685;-63
2022/01/16 04:00:39;;;;;;;35.73;20.60;;;-0.90;99.90;;;-0.04;95.91;98646.06;5186261;28;20218;-64
2022/01/16 04:03:13;;;;;;;37.10;19.73;;;-0.90;99.90;;;-0.08;95.82;98649.00;5189680;28;20666;-63
2022/01/16 04:05:46;;;;;;;69.10;22.03;;;-0.90;99.90;;;-0.17;96.35;98649.56;5188144;28;20266;-63
2022/01/16 04:08:19;;;;;;;54.87;19.83;;;-1.00;99.90;;;-0.23;96.45;98652.28;5189251;28;20237;-64
2022/01/16 04:10:52;;;;;;;90.83;21.60;;;-1.10;99.90;;;-0.28;95.81;98640.88;5188794;28;20229;-63
2022/01/16 04:13:26;;;;;;;45.37;21.93;;;-1.10;99.90;;;-0.34;96.38;98647.72;5188767;28;20231;-63
2022/01/16 04:15:59;;;;;;;39.17;21.73;;;-1.10;99.90;;;-0.28;97.15;98643.38;5188272;28;20595;-63
2022/01/16 04:18:32;;;;;;;46.93;20.93;;;-1.10;99.90;;;-0.39;97.22;98638.78;5188110;28;20230;-63
2022/01/16 04:21:06;;;;;;;41.73;21.77;;;-1.10;99.90;;;-0.38;97.37;98655.63;5188168;28;20222;-64
2022/01/16 04:23:39;;;;;;;39.20;21.37;;;-1.10;99.90;;;-0.27;96.54;98646.03;5188698;28;20232;-63
2022/01/16 04:26:12;;;;;;;33.73;20.77;;;-1.10;99.90;;;-0.21;97.37;98649.97;5188271;28;20221;-63
2022/01/16 04:28:47;;;;;;;35.90;22.23;;;-1.00;99.90;;;-0.08;97.26;98638.06;5186721;28;20222;-63
2022/01/16 04:31:21;;;;;;;34.93;21.30;;;-0.90;99.90;;;-0.01;97.09;98625.41;5179214;28;20218;-63
2022/01/16 04:33:54;;;;;;;34.67;21.70;;;-0.90;99.90;;;0.14;95.60;98633.75;5187131;28;20662;-65
2022/01/16 04:36:27;;;;;;;35.30;20.50;;;-0.90;99.90;;;0.08;95.93;98641.50;5173435;28;20306;-63
2022/01/16 04:39:00;;;;;;;37.87;23.10;;;-0.90;99.90;;;0.09;95.66;98635.75;5183627;28;20225;-63
2022/01/16 04:44:26;;;;;;;35.17;21.03;;;-0.90;99.90;;;0.26;94.76;98625.03;5185115;28;20218;-63
2022/01/16 04:46:59;;;;;;;36.93;22.57;;;-0.80;99.90;;;0.18;95.34;98628.34;5187762;28;20228;-63
2022/01/16 04:49:32;;;;;;;40.57;22.97;;;-0.80;99.90;;;0.21;95.33;98623.66;5187324;28;20224;-63
2022/01/16 04:52:06;;;;;;;42.07;23.43;;;-0.80;99.90;;;0.22;95.41;98625.41;5187600;28;20596;-64
2022/01/16 04:54:39;;;;;;;40.03;23.50;;;-0.70;99.90;;;0.28;95.22;98627.69;5187868;28;20321;-63
2022/01/16 04:57:13;;;;;;;34.20;21.67;;;-0.70;99.90;;;0.31;94.62;98621.38;5187980;28;20222;-63
2022/01/16 04:59:48;;;;;;;38.47;22.67;;;-0.80;99.90;;;0.29;94.19;98617.84;5186702;28;20730;-63
2022/01/16 05:02:21;;;;;;;36.17;22.53;;;-0.80;99.90;;;0.34;93.50;98621.72;5183436;28;20230;-63
2022/01/16 05:04:54;;;;;;;35.23;21.00;;;-0.80;99.90;;;0.34;93.84;98618.31;5183498;28;20228;-63
2022/01/16 05:07:27;;;;;;;34.37;20.77;;;-0.80;99.90;;;0.24;94.22;98615.53;5187218;28;20225;-63
2022/01/16 05:10:00;;;;;;;35.93;21.00;;;-0.80;99.90;;;0.35;94.24;98618.50;5187694;28;20701;-63
2022/01/16 05:12:36;;;;;;;44.13;21.87;;;-0.80;99.90;;;0.19;93.11;98615.03;5182189;28;20350;-64
2022/01/16 05:18:02;;;;;;;35.77;20.87;;;-1.00;99.90;;;-0.24;95.59;98620.38;5187050;28;20225;-63
2022/01/16 05:20:35;;;;;;;34.93;21.47;;;-1.10;99.90;;;-0.22;95.83;98616.44;5187522;28;20228;-63
2022/01/16 05:23:08;;;;;;;37.43;21.23;;;-1.00;99.90;;;-0.02;94.82;98604.44;5186017;28;20239;-63
2022/01/16 05:25:41;;;;;;;38.43;22.90;;;-1.00;99.90;;;0.11;94.11;98613.31;5186716;28;20228;-63
2022/01/16 05:28:14;;;;;;;38.37;22.67;;;-0.90;99.90;;;0.15;93.74;98623.88;5186002;28;20221;-63
2022/01/16 05:30:49;;;;;;;36.07;21.63;;;-0.90;99.90;;;0.12;93.86;98622.66;5185499;28;20226;-63
2022/01/16 05:33:22;;;;;;;37.13;21.90;;;-0.90;99.90;;;0.15;94.25;98633.03;5183323;28;20510;-63
2022/01/16 05:35:56;;;;;;;35.67;22.10;;;-0.90;99.90;;;0.27;93.11;98634.34;5184265;28;20269;-63
2022/01/16 05:38:29;;;;;;;37.23;21.77;;;-0.90;99.90;;;0.34;92.66;98641.81;5184614;28;20214;-63
2022/01/16 05:41:02;;;;;;;35.87;22.20;;;-0.80;99.90;;;0.36;92.66;98649.53;5185021;28;20219;-64
2022/01/16 05:43:35;;;;;;;37.00;22.07;;;-0.80;99.90;;;0.40;92.32;98642.53;5184323;28;20218;-63
2022/01/16 05:46:09;;;;;;;37.20;21.60;;;-0.80;99.90;;;0.28;92.87;98646.19;5184085;28;20249;-63
2022/01/16 05:48:43;;;;;;;34.63;21.90;;;-0.80;99.90;;;0.39;92.76;98653.28;5180779;28;20574;-64
2022/01/16 05:51:16;;;;;;;33.50;21.70;;;-0.80;99.90;;;0.36;92.00;98652.94;5184161;28;20233;-64
2022/01/16 05:53:51;;;;;;;38.33;23.70;;;-0.80;99.90;;;0.35;92.11;98642.75;5185287;28;20221;-63
2022/01/16 05:56:24;;;;;;;36.07;22.87;;;-0.80;99.90;;;0.28;92.37;98635.25;5184515;28;20660;-62
2022/01/16 05:58:57;;;;;;;34.20;23.20;;;-0.80;99.90;;;0.33;92.37;98630.00;5185008;28;20230;-64
2022/01/16 06:01:31;;;;;;;36.27;22.57;;;-0.80;99.90;;;0.41;91.84;98639.25;5182004;28;20232;-63
2022/01/16 06:04:05;;;;;;;35.77;22.13;;;-0.70;99.90;;;0.39;92.06;98640.72;5184428;28;20452;-63
2022/01/16 06:06:38;;;;;;;37.93;22.43;;;-0.70;99.90;;;0.34;91.85;98651.88;5184841;28;20230;-63
2022/01/16 06:09:11;;;;;;;38.20;23.73;;;-0.70;99.90;;;0.35;92.06;98653.69;5184359;28;20222;-63
2022/01/16 06:11:44;;;;;;;31.73;21.57;;;-0.70;99.90;;;0.34;91.89;98651.88;5184642;28;20241;-63
2022/01/16 06:14:17;;;;;;;38.90;22.13;;;-0.70;99.90;;;0.27;91.95;98656.97;5183655;28;20706;-63
2022/01/16 06:16:52;;;;;;;35.53;21.37;;;-0.60;99.90;;;0.22;92.27;98666.53;5184011;28;20269;-61
2022/01/16 06:19:25;;;;;;;34.27;21.63;;;-0.70;99.90;;;0.33;92.25;98665.19;5184425;28;20222;-63
2022/01/16 06:21:58;;;;;;;39.03;23.03;;;-0.70;99.90;;;0.39;91.93;98670.88;5184053;28;20223;-63
2022/01/16 06:24:31;;;;;;;34.57;22.70;;;-0.70;99.90;;;0.36;92.22;98670.53;5183792;28;20228;-64
2022/01/16 06:27:05;;;;;;;34.60;22.10;;;-0.60;99.90;;;0.47;91.63;98673.34;5177826;28;20227;-63
2022/01/16 06:29:38;;;;;;;36.63;21.57;;;-0.70;99.90;;;0.57;91.40;98681.16;5180226;28;20237;-64
2022/01/16 06:32:12;;;;;;;34.10;21.20;;;-0.60;99.90;;;0.51;90.98;98686.41;5183527;28;20328;-63
2022/01/16 06:34:45;;;;;;;36.60;22.97;;;-0.60;99.90;;;0.60;90.75;98687.44;5183038;28;20220;-64
2022/01/16 06:37:19;;;;;;;38.43;23.43;;;-0.60;99.90;;;0.57;90.77;98686.19;5183323;28;20219;-63
2022/01/16 06:39:52;;;;;;;36.00;22.30;;;-0.60;99.90;;;0.55;91.34;98686.03;5183301;28;20229;-63
2022/01/16 06:42:25;;;;;;;41.67;24.63;;;-0.50;99.90;;;0.53;91.83;98684.06;5182775;28;20224;-63
2022/01/16 06:44:58;;;;;;;39.67;24.00;;;-0.50;99.90;;;0.46;92.37;98692.59;5176822;28;20220;-63
2022/01/16 06:47:32;;;;;;;41.60;24.73;;;-0.40;99.90;;;0.51;92.34;98695.56;5176430;28;20231;-63
2022/01/16 06:50:07;;;;;;;37.43;22.53;;;-0.50;99.90;;;0.56;92.12;98695.34;5182905;28;20220;-63
2022/01/16 06:52:40;;;;;;;40.30;24.10;;;-0.50;99.90;;;0.56;91.96;98704.53;5182609;28;20236;-64
2022/01/16 06:55:14;;;;;;;40.80;24.10;;;-0.50;99.90;;;0.58;91.59;98700.56;5179130;28;20223;-63
2022/01/16 06:57:47;;;;;;;36.90;24.27;;;-0.50;99.90;;;0.64;91.61;98713.78;5180027;28;20222;-63
2022/01/16 07:00:20;;;;;;;42.07;25.47;;;-0.50;99.90;;;0.72;90.77;98718.03;5179285;28;20769;-63
2022/01/16 07:02:54;;;;;;;44.57;24.63;;;-0.50;99.90;;;0.64;91.42;98723.88;5179568;28;20235;-63
2022/01/16 07:05:27;;;;;;;44.10;26.13;;;-0.50;99.90;;;0.58;91.33;98728.22;5183030;28;20244;-63
2022/01/16 07:08:00;;;;;;;41.90;24.67;;;-0.50;99.90;;;0.60;91.97;98724.22;5179707;28;20250;-64
2022/01/16 07:10:33;;;;;;;42.43;24.60;;;-0.50;99.90;;;0.51;92.17;98728.28;5183284;28;20248;-64
2022/01/16 07:13:06;;;;;;;37.93;24.00;;;-0.60;99.90;;;0.47;92.25;98733.69;5182080;28;20223;-63
2022/01/16 07:15:39;;;;;;;40.10;24.33;;;-0.60;99.90;;;0.51;92.17;98733.28;5182366;28;20226;-63
2022/01/16 07:18:13;;;;;;;44.07;24.60;;;-0.60;99.90;;;0.43;91.95;98738.41;5179843;28;20219;-63
2022/01/16 07:20:47;;;;;;;40.17;23.90;;;-0.60;99.90;;;0.42;92.11;98735.69;5179865;28;20230;-63
2022/01/16 07:23:20;;;;;;;40.23;24.40;;;-0.60;99.90;;;0.40;92.27;98738.06;5182712;28;20593;-63
2022/01/16 07:25:54;;;;;;;39.27;23.93;;;-0.60;99.90;;;0.54;91.18;98746.19;5181452;28;20219;-63
2022/01/16 07:28:27;;;;;;;35.50;22.90;;;-0.60;99.90;;;0.45;91.84;98749.50;5181788;28;20583;-63
2022/01/16 07:31:00;;;;;;;35.17;23.13;;;-0.60;99.90;;;0.41;91.23;98764.09;5182062;28;20233;-64
2022/01/16 07:33:34;;;;;;;36.07;23.67;;;-0.60;99.90;;;0.37;91.00;98752.81;5183019;28;20505;-63
2022/01/16 07:36:07;;;;;;;33.43;22.07;;;-0.70;99.90;;;0.34;90.62;98761.59;5184982;28;20229;-63
2022/01/16 07:38:40;;;;;;;32.20;22.83;;;-0.60;99.90;;;0.26;90.55;98767.41;5178611;28;20225;-63
2022/01/16 07:41:13;;;;;;;29.17;21.17;;;-0.70;99.90;;;0.15;90.37;98756.19;5183148;28;20225;-64
2022/01/16 07:43:46;;;;;;;27.70;20.10;;;-0.80;99.90;;;0.09;88.95;98756.41;5178969;28;20218;-64
2022/01/16 07:46:20;;;;;;;29.37;19.30;;;-0.80;99.90;;;0.21;86.95;98775.34;5185395;28;20232;-65
2022/01/16 07:48:54;;;;;;;28.47;20.00;;;-0.70;99.90;;;0.24;87.51;98772.28;5176222;28;20630;-63
2022/01/16 07:51:27;;;;;;;30.80;20.93;;;-0.70;99.90;;;0.18;86.44;98772.50;5181804;28;20225;-63
2022/01/16 07:54:01;;;;;;;29.50;20.03;;;-0.80;99.90;;;0.15;86.45;98779.69;5176423;28;20230;-63
2022/01/16 07:56:34;;;;;;;30.63;20.77;;;-0.70;99.90;;;0.21;86.61;98784.50;5182181;28;20221;-66
2022/01/16 07:59:07;;;;;;;29.00;19.37;;;-0.60;99.90;;;0.32;86.15;98783.19;5186190;28;20232;-63
2022/01/16 08:01:40;;;;;;;27.20;19.50;;;-0.50;99.90;;;0.32;85.42;98775.66;5180280;28;20239;-63
2022/01/16 08:04:14;;;;;;;27.63;18.60;;;-0.50;99.90;;;0.41;84.46;98780.06;5183280;28;20728;-63
2022/01/16 08:06:47;;;;;;;27.57;20.20;;;-0.50;99.90;;;0.55;83.82;98775.69;5169917;28;20222;-64
2022/01/16 08:09:20;;;;;;;26.40;20.20;;;-0.50;99.90;;;0.65;83.26;98778.47;5177262;28;20427;-64
2022/01/16 08:11:54;;;;;;;26.73;19.03;;;-0.40;99.90;;;0.64;82.97;98766.63;5177908;28;20239;-63
2022/01/16 08:14:27;;;;;;;26.53;19.83;;;-0.30;99.90;;;0.71;82.27;98776.59;5177485;28;20218;-64
2022/01/16 08:17:00;;;;;;;27.43;20.33;;;-0.30;99.90;;;0.72;82.19;98773.38;5179793;28;20219;-64
2022/01/16 08:19:35;;;;;;;25.33;20.70;;;-0.40;99.90;;;0.75;82.51;98778.75;5182913;28;20678;-63
2022/01/16 08:22:10;;;;;;;26.93;19.40;;;-0.30;99.90;;;0.80;83.02;98779.22;5177405;28;20575;-64
2022/01/16 08:24:43;;;;;;;26.07;19.93;;;-0.20;99.90;;;0.94;82.93;98780.75;5182746;28;20228;-64
2022/01/16 08:27:17;;;;;;;27.03;20.17;;;0.00;99.90;;;1.06;82.43;98772.00;5183433;28;20293;-64
2022/01/16 08:29:50;;;;;;;26.47;20.60;;;0.10;99.90;;;1.22;81.83;98790.56;5182288;28;20235;-64
2022/01/16 08:32:23;;;;;;;26.67;19.77;;;0.20;99.90;;;1.41;80.65;98792.53;5181370;28;20233;-63
2022/01/16 08:34:57;;;;;;;25.70;18.80;;;0.20;99.90;;;1.43;79.87;98796.09;5183060;28;20243;-63
2022/01/16 08:37:30;;;;;;;27.40;21.17;;;0.20;99.90;;;1.37;81.24;98800.47;5183888;28;20226;-64
2022/01/16 08:40:05;;;;;;;27.33;21.13;;;0.30;99.90;;;1.53;80.10;98798.88;5184993;28;20260;-64
2022/01/16 08:42:40;;;;;;;112.23;83.63;;;0.40;99.90;;;1.70;80.10;98798.16;5181214;28;20227;-64
2022/01/16 08:45:13;;;;;;;121.63;93.83;;;0.40;99.90;;;1.54;80.65;98801.56;5184871;28;20219;-65
2022/01/16 08:47:47;;;;;;;51.10;40.23;;;0.50;99.90;;;1.42;81.41;98804.41;5183179;28;20227;-64
2022/01/16 08:50:21;;;;;;;34.80;26.47;;;0.40;99.90;;;1.64;80.25;98803.44;5184876;28;20229;-63
2022/01/16 08:52:54;;;;;;;126.93;74.40;;;0.30;99.90;;;1.60;80.67;98816.44;5181850;28;20712;-62
2022/01/16 08:55:28;;;;;;;46.17;30.80;;;0.40;99.90;;;1.59;81.04;98824.72;5183017;28;20225;-63
2022/01/16 08:58:01;;;;;;;77.87;51.27;;;0.30;99.90;;;1.63;81.11;98820.91;5184322;28;20229;-64
2022/01/16 09:00:34;;;;;;;82.00;52.93;;;0.30;99.90;;;1.60;81.79;98825.63;5177365;28;20920;-63
2022/01/16 09:03:07;;;;;;;37.60;26.43;;;0.50;99.90;;;1.62;80.78;98822.53;5182895;28;20225;-62
2022/01/16 09:05:42;;;;;;;28.97;21.63;;;0.30;99.90;;;1.73;80.22;98828.72;5186402;28;20241;-63
2022/01/16 09:08:18;;;;;;;28.53;20.67;;;0.40;99.90;;;1.73;80.76;98836.28;5186255;28;20489;-63
2022/01/16 09:10:51;;;;;;;25.63;20.30;;;0.40;99.90;;;1.76;79.79;98824.00;5187053;28;20236;-63
2022/01/16 09:13:24;;;;;;;26.70;20.43;;;0.50;99.90;;;1.78;81.40;98831.00;5179543;28;20237;-62
2022/01/16 09:15:57;;;;;;;34.90;24.27;;;0.60;99.90;;;1.84;81.15;98833.28;5179815;28;20222;-62
2022/01/16 09:18:30;;;;;;;30.60;22.80;;;0.80;99.90;;;1.97;80.55;98850.59;5179753;28;20229;-62
2022/01/16 09:21:04;;;;;;;31.00;22.80;;;0.70;99.90;;;2.00;79.75;98861.00;5186115;28;20323;-60
2022/01/16 09:23:38;;;;;;;30.43;23.17;;;0.80;99.90;;;2.08;79.98;98857.66;5181652;28;20218;-63
2022/01/16 09:26:11;;;;;;;30.33;22.93;;;0.80;99.90;;;2.18;78.99;98857.91;5177261;28;20225;-60
2022/01/16 09:28:45;;;;;;;30.03;22.73;;;1.00;99.90;;;2.21;78.89;98854.81;5178860;28;20234;-64
2022/01/16 09:31:18;;;;;;;33.90;25.87;;;0.80;99.90;;;2.20;78.24;98858.97;5175610;28;20229;-64
2022/01/16 09:33:51;;;;;;;35.83;25.20;;;0.70;99.90;;;2.03;78.90;98861.31;5176439;28;20258;-63
2022/01/16 09:36:26;;;;;;;34.17;25.47;;;0.60;99.90;;;1.92;80.08;98877.84;5174231;28;20242;-62
2022/01/16 09:38:59;;;;;;;33.93;25.23;;;0.60;99.90;;;1.87;80.14;98873.94;5179995;28;20219;-63
2022/01/16 09:41:32;;;;;;;31.10;24.67;;;0.60;99.90;;;1.88;80.45;98869.78;5180839;28;20219;-64
2022/01/16 09:44:06;;;;;;;32.07;24.27;;;0.60;99.90;;;1.95;80.33;98877.28;5181992;28;20218;-63
2022/01/16 09:46:39;;;;;;;29.83;24.17;;;0.60;99.90;;;2.02;80.21;98879.69;5182892;28;20222;-63
2022/01/16 09:49:12;;;;;;;31.03;24.07;;;0.60;99.90;;;2.06;80.70;98879.31;5183778;28;20229;-64
2022/01/16 09:51:46;;;;;;;31.43;25.37;;;0.60;99.90;;;1.82;81.25;98884.25;5177334;28;20225;-62
2022/01/16 09:54:21;;;;;;;31.03;25.17;;;0.60;99.90;;;1.87;81.03;98881.50;5173530;28;20230;-64
2022/01/16 09:56:55;;;;;;;31.73;25.17;;;0.60;99.90;;;1.90;81.46;98888.50;5176636;28;20229;-64
2022/01/16 09:59:28;;;;;;;29.60;25.17;;;0.60;99.90;;;1.93;81.60;98889.69;5173132;28;20225;-63
2022/01/16 10:02:01;;;;;;;29.47;24.70;;;0.60;99.90;;;1.88;80.94;98888.31;5179911;28;20249;-64
2022/01/16 10:04:37;;;;;;;29.93;23.17;;;0.60;99.90;;;1.80;81.71;98891.63;5181173;28;20230;-65
2022/01/16 10:07:15;;;;;;;28.60;24.63;;;0.60;99.90;;;1.89;81.64;98886.69;5181833;28;20226;-65
2022/01/16 10:10:08;;;;;;;28.10;23.73;;;0.60;99.90;;;1.73;82.66;98880.00;5181742;28;20760;-63
2022/01/16 10:12:47;;;;;;;31.00;26.30;;;0.60;99.90;;;1.75;82.75;98883.59;5179390;28;20233;-65
2022/01/16 10:15:24;;;;;;;29.80;23.87;;;0.70;99.90;;;1.77;82.18;98877.09;5177759;28;20217;-64
2022/01/16 10:17:59;;;;;;;30.63;25.80;;;0.70;99.90;;;1.78;83.22;98873.84;5180113;28;20235;-65
2022/01/16 10:20:46;;;;;;;31.03;24.97;;;0.70;99.90;;;1.88;82.90;98877.34;5179249;28;20694;-65
2022/01/16 10:23:22;;;;;;;35.53;25.47;;;0.70;99.90;;;1.98;82.47;98877.59;5181806;28;20222;-64
2022/01/16 10:25:55;;;;;;;32.07;25.47;;;0.70;99.90;;;1.90;82.83;98879.28;5180840;28;20225;-63
2022/01/16 10:28:28;;;;;;;33.97;25.73;;;0.70;99.90;;;1.91;82.42;98875.16;5179992;28;20223;-65
2022/01/16 10:31:01;;;;;;;33.97;26.90;;;0.70;99.90;;;1.79;83.43;98872.22;5177469;28;20225;-64
2022/01/16 10:33:35;;;;;;;33.63;25.60;;;0.70;99.90;;;1.76;84.18;98875.28;5175337;28;20689;-65
2022/01/16 10:36:08;;;;;;;32.43;25.73;;;0.80;99.90;;;1.84;83.79;98867.69;5179922;28;20694;-64
2022/01/16 10:38:43;;;;;;;37.43;29.40;;;0.80;99.90;;;1.82;84.13;98875.06;5181140;28;20229;-65
2022/01/16 10:41:16;;;;;;;34.67;28.27;;;0.80;99.90;;;1.95;83.35;98877.28;5175930;28;20229;-61
2022/01/16 10:43:49;;;;;;;40.80;30.10;;;0.80;99.90;;;1.93;83.60;98878.72;5178695;28;20225;-65
2022/01/16 10:46:27;;;;;;;39.53;30.97;;;0.80;99.90;;;1.88;84.47;98877.34;5181527;28;20223;-64
2022/01/16 10:49:21;;;;;;;43.47;33.17;;;0.80;99.90;;;1.90;84.10;98869.22;5169522;28;20222;-65
2022/01/16 10:52:09;;;;;;;39.40;30.80;;;0.90;99.90;;;1.84;85.37;98875.25;5178385;28;20229;-62
2022/01/16 10:54:43;;;;;;;99.77;63.03;;;0.80;99.90;;;1.96;84.72;98877.44;5173869;28;20243;-65
2022/01/16 10:57:23;;;;;;;44.43;33.63;;;0.90;99.90;;;1.91;84.99;98886.13;5182039;28;20240;-61
2022/01/16 11:00:12;;;;;;;46.77;35.50;;;0.90;99.90;;;1.91;85.54;98890.25;5183121;28;20716;-65
2022/01/16 11:02:48;;;;;;;40.03;31.77;;;1.00;99.90;;;2.00;86.14;98888.72;5174946;28;20249;-64
2022/01/16 11:05:23;;;;;;;38.23;29.10;;;1.00;99.90;;;2.16;85.68;98883.69;5172493;28;20222;-64
2022/01/16 11:07:59;;;;;;;36.50;29.37;;;1.10;99.90;;;2.18;85.70;98890.69;5174369;28;20233;-62
2022/01/16 11:10:36;;;;;;;41.67;31.03;;;1.10;99.90;;;2.32;85.39;98892.16;5179431;28;20229;-65
2022/01/16 11:13:12;;;;;;;41.37;31.87;;;1.20;99.90;;;2.37;84.32;98890.97;5196643;23;20308;-63
2022/01/16 11:15:48;;;;;;;43.13;31.33;;;1.20;99.90;;;2.29;85.43;98899.41;5188503;28;20682;-63